Time;durP1;ratioP1;P1;durP2;ratioP2;P2;SDS_P1;SDS_P2;PMS_P1;PMS_P2;Temp;Humidity;BMP_temperature;BMP_pressure;BME280_temperature;BME280_humidity;BME280_pressure;Samples;Min_cycle;Max_cycle;Signal;HPM_P1;HPM_P2
2023/01/30 00:02:34;;;;;;;22.47;14.40;;;;;;;-1.76;55.20;100530.16;10453847;28;20240;-62
2023/01/30 00:07:35;;;;;;;19.73;14.53;;;;;;;-2.01;56.73;100530.66;10457658;28;20236;-62
2023/01/30 00:12:37;;;;;;;21.87;15.80;;;;;;;-2.99;57.46;100570.75;10470877;28;20227;-61
2023/01/30 00:17:39;;;;;;;19.57;15.03;;;;;;;-1.94;57.05;100516.28;10468940;28;20618;-62
2023/01/30 00:22:40;;;;;;;22.73;15.80;;;;;;;-2.41;57.73;100535.44;10456440;28;20903;-61
2023/01/30 00:27:59;;;;;;;23.67;15.43;;;;;;;-3.73;59.18;100582.16;10455952;28;20235;-59
2023/01/30 00:33:00;;;;;;;26.63;16.20;;;;;;;-3.74;60.43;100613.63;10460864;28;20231;-62
2023/01/30 00:38:02;;;;;;;26.70;16.43;;;;;;;-3.50;59.90;100616.88;10464046;28;20737;-62
2023/01/30 00:48:25;;;;;;;26.17;15.77;;;;;;;-3.14;59.21;100595.91;10455989;28;20786;-61
2023/01/30 00:53:26;;;;;;;22.70;15.63;;;;;;;-2.36;58.61;100549.16;10461658;28;20232;-62
2023/01/30 00:58:28;;;;;;;24.07;16.60;;;;;;;-3.02;58.16;100584.00;10458767;28;20235;-60
2023/01/30 01:03:29;;;;;;;22.83;16.13;;;;;;;-2.68;57.77;100575.31;10459561;28;20251;-62
2023/01/30 01:08:31;;;;;;;22.50;15.93;;;;;;;-3.20;59.72;100597.97;10461324;28;20238;-62
2023/01/30 01:13:33;;;;;;;21.97;15.63;;;;;;;-3.17;59.25;100608.31;10457468;28;20233;-60
2023/01/30 01:18:35;;;;;;;23.60;17.03;;;;;;;-2.89;59.00;100602.59;10459507;28;20716;-62
2023/01/30 01:23:38;;;;;;;23.17;16.47;;;;;;;-3.38;60.04;100604.97;10461012;28;20784;-62
2023/01/30 01:28:39;;;;;;;24.80;16.67;;;;;;;-2.14;57.95;100519.16;10455449;28;20729;-59
2023/01/30 01:33:41;;;;;;;25.77;15.70;;;;;;;-2.45;58.24;100526.06;10449945;28;20235;-62
2023/01/30 01:38:43;;;;;;;23.27;15.43;;;;;;;-2.56;57.93;100525.78;10463654;28;20270;-62
2023/01/30 01:44:04;;;;;;;21.03;14.77;;;;;;;-1.78;57.21;100460.34;10462663;28;20243;-63
2023/01/30 01:49:18;;;;;;;19.23;13.90;;;;;;;-2.22;57.26;100485.50;10453424;28;20737;-63
2023/01/30 01:54:35;;;;;;;20.57;13.90;;;;;;;-2.38;57.33;100510.84;10446422;28;20255;-62
2023/01/30 01:59:44;;;;;;;20.73;13.27;;;;;;;-2.32;57.11;100516.63;10453459;28;20237;-62
2023/01/30 02:05:05;;;;;;;16.80;12.23;;;;;;;-2.89;57.83;100555.44;10458342;28;20624;-62
2023/01/30 02:10:12;;;;;;;19.00;13.80;;;;;;;-2.56;57.72;100499.56;10450211;28;20231;-61
2023/01/30 02:15:15;;;;;;;18.57;13.50;;;;;;;-2.06;57.18;100459.25;10459099;28;20251;-62
2023/01/30 02:20:43;;;;;;;17.97;13.47;;;;;;;-2.79;57.96;100496.41;10466911;28;20295;-62
2023/01/30 02:25:55;;;;;;;16.77;12.87;;;;;;;-3.55;59.63;100514.16;10454434;28;20789;-62
2023/01/30 02:31:15;;;;;;;14.47;11.43;;;;;;;-3.76;59.54;100521.31;10452267;28;20240;-60
2023/01/30 18:04:21;;;;;;;10.80;8.70;;;;;;;1.70;61.28;100807.44;9488399;27;10001636;-37
2023/01/30 18:09:23;;;;;;;11.77;8.43;;;;;;;1.79;60.36;100833.25;10333621;28;20256;-34
2023/01/30 18:14:25;;;;;;;12.90;9.67;;;;;;;1.77;61.42;100839.56;10332711;28;20232;-37
2023/01/30 18:19:27;;;;;;;12.70;9.53;;;;;;;0.94;62.24;100785.06;10340333;28;20243;-35
2023/01/30 18:24:29;;;;;;;13.23;9.90;;;;;;;1.28;61.70;100790.81;10338865;28;20473;-37
2023/01/30 18:29:31;;;;;;;14.27;10.07;;;;;;;0.78;62.95;100761.47;10340398;28;20707;-35
2023/01/30 18:34:33;;;;;;;13.50;9.53;;;;;;;0.16;64.51;100722.28;10340169;28;20247;-35
2023/01/30 18:39:37;;;;;;;13.10;10.23;;;;;;;0.47;63.60;100730.94;10341810;28;20255;-37
2023/01/30 18:44:38;;;;;;;13.13;8.53;;;;;;;0.38;64.45;100727.09;10342283;28;20606;-37
2023/01/30 18:49:40;;;;;;;13.20;9.90;;;;;;;1.02;63.40;100784.59;10336631;28;20322;-37
2023/01/30 18:54:42;;;;;;;12.93;9.20;;;;;;;1.55;61.95;100832.22;10345418;28;20229;-37
2023/01/30 18:59:43;;;;;;;11.53;9.90;;;;;;;1.42;61.24;100838.28;10340538;28;20505;-37
2023/01/30 19:04:45;;;;;;;12.93;9.03;;;;;;;1.50;61.11;100864.16;10341653;28;20600;-37
2023/01/30 19:09:47;;;;;;;12.87;9.80;;;;;;;1.54;60.51;100883.28;10336860;28;20621;-38
2023/01/30 19:14:48;;;;;;;14.80;10.40;;;;;;;1.55;60.44;100901.63;10315016;28;20233;-38
2023/01/30 19:19:50;;;;;;;11.93;10.73;;;;;;;2.93;57.85;100977.19;10316765;28;20343;-37
2023/01/30 19:24:52;;;;;;;13.10;9.83;;;;;;;1.96;59.61;100939.50;10315431;28;20245;-37
2023/01/30 19:29:54;;;;;;;10.93;9.57;;;;;;;2.02;59.56;100949.69;10310572;28;20229;-37
2023/01/30 19:34:56;;;;;;;8.67;6.97;;;;;;;-0.53;64.99;100795.59;10311821;28;20660;-37
2023/01/30 19:39:58;;;;;;;12.00;8.97;;;;;;;0.50;64.33;100865.06;10310291;28;20233;-37
2023/01/30 19:44:59;;;;;;;9.70;7.63;;;;;;;0.53;64.99;100857.00;10310520;28;20319;-37
2023/01/30 19:50:01;;;;;;;11.40;8.60;;;;;;;0.19;64.34;100856.38;10307854;28;20236;-37
2023/01/30 19:55:04;;;;;;;10.80;8.53;;;;;;;1.47;61.99;100932.94;10307748;28;20236;-37
2023/01/30 20:00:06;;;;;;;11.20;8.70;;;;;;;2.00;61.31;100958.66;10313454;28;20581;-37
2023/01/30 20:05:08;;;;;;;13.33;8.80;;;;;;;1.69;60.42;100947.41;10309325;28;20235;-37
2023/01/30 20:10:10;;;;;;;12.27;9.87;;;;;;;1.11;61.54;100901.78;10309474;28;20741;-37
2023/01/30 20:15:12;;;;;;;10.13;8.37;;;;;;;1.66;60.93;100948.47;10307043;28;20240;-37
2023/01/30 20:20:15;;;;;;;10.83;8.90;;;;;;;2.22;60.08;100997.72;10311433;28;20236;-37
2023/01/30 20:25:17;;;;;;;10.53;9.10;;;;;;;1.61;61.25;100958.47;10309945;28;20234;-37
2023/01/30 20:30:19;;;;;;;14.90;10.83;;;;;;;1.37;62.45;100943.25;10309105;28;20331;-37
2023/01/30 20:35:21;;;;;;;36.67;17.03;;;;;;;1.76;61.66;100970.69;10305282;28;20923;-37
2023/01/30 20:40:23;;;;;;;14.50;10.40;;;;;;;2.67;58.52;101040.53;10312987;28;20228;-37
2023/01/30 20:45:25;;;;;;;15.80;10.73;;;;;;;2.52;58.63;101034.50;10310055;28;20230;-36
2023/01/30 20:50:27;;;;;;;12.87;9.70;;;;;;;2.01;59.34;101013.13;10302431;28;20846;-37
2023/01/30 20:55:58;;;;;;;14.87;10.47;;;;;;;2.07;58.42;101036.53;9395899;28;10000760;-37
2023/01/30 21:01:09;;;;;;;10.33;8.27;;;;;;;1.77;58.86;101016.41;10349386;28;20239;-37
2023/01/30 21:06:11;;;;;;;12.23;9.63;;;;;;;1.72;59.70;101008.75;10348440;28;20268;-37
2023/01/30 21:11:15;;;;;;;11.60;9.07;;;;;;;1.99;58.92;101042.28;10352588;28;20229;-37
2023/01/30 21:16:22;;;;;;;10.67;8.97;;;;;;;1.83;59.17;101025.72;10354630;28;20241;-35
2023/01/30 21:21:38;;;;;;;13.13;10.80;;;;;;;2.45;57.98;101086.03;10350591;28;20234;-37
2023/01/30 21:26:44;;;;;;;12.60;9.67;;;;;;;2.05;58.91;101060.38;10356254;28;20236;-37
2023/01/30 21:31:47;;;;;;;14.00;10.30;;;;;;;1.78;58.64;101069.09;10352348;28;20245;-37
2023/01/30 21:47:29;;;;;;;13.10;10.57;;;;;;;2.08;59.19;101081.31;10345045;28;20235;-37
2023/01/30 21:52:32;;;;;;;12.40;9.30;;;;;;;1.91;58.59;101089.44;10351808;28;20224;-37
2023/01/30 21:57:34;;;;;;;14.20;9.93;;;;;;;2.36;58.37;101120.00;10351779;28;20302;-37
2023/01/30 22:02:35;;;;;;;13.87;9.70;;;;;;;1.85;59.93;101069.56;10351076;28;20257;-37
2023/01/30 22:07:37;;;;;;;11.47;9.93;;;;;;;1.80;59.78;101090.13;10349705;28;20245;-37
2023/01/30 22:12:40;;;;;;;12.67;9.23;;;;;;;2.03;59.16;101103.66;10355034;28;20714;-37
2023/01/30 22:17:42;;;;;;;13.30;9.53;;;;;;;2.38;57.85;101129.66;10348603;28;20275;-37
2023/01/30 22:22:43;;;;;;;13.47;9.57;;;;;;;2.53;58.04;101140.09;10350852;28;20256;-37
2023/01/30 22:27:45;;;;;;;13.97;9.27;;;;;;;2.37;57.86;101157.88;10349104;28;20248;-37
2023/01/30 22:32:47;;;;;;;11.00;8.20;;;;;;;0.99;60.95;101022.03;10349096;28;20233;-37
2023/01/30 22:37:48;;;;;;;10.83;9.13;;;;;;;2.45;58.84;101137.09;10353321;28;20250;-37
2023/01/30 22:42:50;;;;;;;12.63;8.80;;;;;;;2.33;59.38;101127.28;10347791;28;20617;-37
2023/01/30 22:47:52;;;;;;;12.73;9.10;;;;;;;1.66;60.88;101085.69;10355457;28;20335;-37
2023/01/30 22:52:54;;;;;;;11.30;8.87;;;;;;;2.10;59.88;101116.41;10356337;28;20722;-37
2023/01/30 22:57:56;;;;;;;9.80;8.03;;;;;;;2.87;57.69;101155.53;10356098;28;20623;-37
2023/01/30 23:02:57;;;;;;;12.37;9.70;;;;;;;3.12;57.45;101165.38;10352995;28;20241;-37
2023/01/30 23:07:59;;;;;;;11.37;8.60;;;;;;;1.78;59.71;101079.66;10362016;28;20232;-37
2023/01/30 23:13:07;;;;;;;15.70;9.50;;;;;;;2.00;60.25;101096.78;10361123;28;20232;-37
2023/01/30 23:23:29;;;;;;;10.13;8.23;;;;;;;1.73;60.13;101065.88;10353823;28;20232;-37
2023/01/30 23:28:31;;;;;;;9.70;8.53;;;;;;;2.28;59.00;101101.19;10362397;28;20226;-37
2023/01/30 23:33:33;;;;;;;11.77;8.53;;;;;;;2.20;58.56;101092.91;10356583;28;20229;-37
2023/01/30 23:38:35;;;;;;;9.80;7.57;;;;;;;2.39;58.00;101111.06;10356123;28;20726;-37
2023/01/30 23:43:38;;;;;;;9.10;7.40;;;;;;;2.44;57.51;101111.59;10356326;28;20241;-37
2023/01/30 23:48:43;;;;;;;9.43;8.30;;;;;;;2.36;58.02;101113.88;10357253;28;20718;-37
2023/01/30 23:53:45;;;;;;;9.37;7.67;;;;;;;2.45;58.03;101105.38;10352780;28;20237;-37
2023/01/30 23:58:48;;;;;;;11.27;7.47;;;;;;;2.05;57.60;101093.88;10353104;28;20288;-37
